KTVC/TVC METAR and TAF weather

Enter ICAO airport designator
Station Type Date Time Source
KTVC METAR 2019/12/07 16:53 UTC NOAA

KTVC 071653Z 18006KT 10SM BKN075 BKN120 01/M04 A3029 RMK AO2 SLP265 T00061044


Station Type Date Time Source
KTVC Decoded METAR 2019/12/07 16:53 UTC NOAA

CHERRY CAPITAL AIRPORT, MI, United States (KTVC) 44-44N 085-34W 190M
Dec 07, 2019 - 11:53 AM EST / 2019.12.07 1653 UTC
Wind: from the S (180 degrees) at 7 MPH (6 KT):0
Visibility: 10 mile(s):0
Sky conditions: mostly cloudy
Temperature: 33.1 F (0.6 C)
Windchill: 26 F (-3 C):1
Dew Point: 24.1 F (-4.4 C)
Relative Humidity: 69%
Pressure (altimeter): 30.29 in. Hg (1025 hPa)
ob: KTVC 071653Z 18006KT 10SM BKN075 BKN120 01/M04 A3029 RMK AO2 SLP265 T00061044
cycle: 17

Station Type Date Time Source
KTVC TAF 2019/12/07 18:42 UTC NOAA

KTVC 071739Z 0718/0818 18007KT P6SM SCT030 BKN080
FM072300 19012KT P6SM BKN080
FM080100 19013G21KT P6SM BKN100
FM080300 19013G23KT P6SM BKN100 WS010/22040KT
FM081500 21012G22KT P6SM SCT016 OVC045 WS012/22045KT
FM081700 24012G20KT P6SM SCT014 OVC024

Example: see airport list